Time;durP1;ratioP1;P1;durP2;ratioP2;P2;SDS_P1;SDS_P2;PMS_P1;PMS_P2;Temp;Humidity;BMP_temperature;BMP_pressure;BME280_temperature;BME280_humidity;BME280_pressure;Samples;Min_cycle;Max_cycle;Signal;HPM_P1;HPM_P2
2023/03/14 00:00:19;;;;;;;;;42.67;33.67;;;;;5.41;65.99;98885.22;6285566;20;2871139;-57
2023/03/14 00:02:53;;;;;;;;;42.67;37.33;;;;;5.52;64.52;98884.63;6321919;20;3596138;-56
2023/03/14 00:05:23;;;;;;;;;46.33;37.33;;;;;5.36;65.02;98871.28;6285755;20;2866999;-56
2023/03/14 00:07:51;;;;;;;;;39.00;33.50;;;;;5.16;68.24;98869.69;6315008;20;2860746;-55
2023/03/14 00:10:21;;;;;;;;;37.00;32.00;;;;;5.35;65.84;98867.78;6286340;20;2863783;-57
2023/03/14 00:12:49;;;;;;;;;30.50;27.00;;;;;5.30;64.83;98876.97;6286472;20;2848152;-57
2023/03/14 00:15:17;;;;;;;;;29.00;25.00;;;;;5.34;64.40;98875.84;6284900;20;2500335;-58
2023/03/14 00:17:47;;;;;;;;;43.00;30.00;;;;;5.22;64.52;98874.69;6287091;20;2866164;-57
2023/03/14 00:20:16;;;;;;;;;49.00;36.33;;;;;5.04;66.58;98872.03;6317391;20;3607587;-55
2023/03/14 00:22:46;;;;;;;;;39.00;35.33;;;;;5.07;65.87;98865.72;6318514;20;3621206;-58
2023/03/14 00:25:15;;;;;;;;;44.00;35.50;;;;;5.10;66.34;98856.72;6317977;20;2852644;-58
2023/03/14 00:27:45;;;;;;;;;36.00;30.33;;;;;5.00;66.45;98843.91;6315913;20;2861703;-58
2023/03/14 00:30:15;;;;;;;;;50.00;37.67;;;;;4.76;68.44;98839.84;6317133;20;2877351;-57
2023/03/14 00:32:44;;;;;;;;;41.33;32.33;;;;;4.83;69.23;98835.94;6317214;20;2872239;-58
2023/03/14 00:35:13;;;;;;;;;30.50;28.50;;;;;4.95;67.93;98843.28;6316032;20;2856566;-57
2023/03/14 00:37:42;;;;;;;;;39.00;33.67;;;;;5.00;67.28;98833.25;6285507;20;2865977;-58
2023/03/14 00:40:12;;;;;;;;;35.50;34.00;;;;;5.11;66.85;98839.78;6317953;20;2859700;-57
2023/03/14 00:42:40;;;;;;;;;35.50;34.00;;;;;5.13;65.94;98829.94;6287071;20;2865684;-57
2023/03/14 00:45:10;;;;;;;;;35.00;31.50;;;;;5.07;65.88;98824.00;6284366;20;2855618;-58
2023/03/14 00:47:38;;;;;;;;;36.00;30.50;;;;;5.11;64.99;98808.75;6286474;20;2855499;-58
2023/03/14 00:50:08;;;;;;;;;32.50;30.00;;;;;5.14;64.84;98802.41;6283152;20;2847234;-57
2023/03/14 00:52:37;;;;;;;;;34.50;31.00;;;;;5.12;65.24;98809.59;6286641;20;2860154;-57
2023/03/14 00:55:06;;;;;;;;;20.00;19.00;;;;;5.27;64.76;98803.47;6283823;20;2500312;-54
2023/03/14 00:57:34;;;;;;;;;29.00;26.00;;;;;5.25;64.84;98808.00;6285126;20;2844120;-54
2023/03/14 01:00:06;;;;;;;;;40.00;34.00;;;;;5.37;63.87;98795.81;6282192;20;2867095;-57
2023/03/14 01:02:35;;;;;;;;;31.00;29.00;;;;;5.37;63.79;98791.38;6287723;20;2848284;-56
2023/03/14 01:05:04;;;;;;;;;28.00;28.00;;;;;5.35;63.47;98795.91;6285533;20;2849263;-57
2023/03/14 01:07:33;;;;;;;;;29.00;27.00;;;;;5.36;63.33;98786.13;6287249;20;2562878;-55
2023/03/14 01:10:05;;;;;;;;;35.50;28.00;;;;;5.13;65.87;98787.38;6316746;20;2856613;-57
2023/03/14 01:12:34;;;;;;;;;32.50;29.50;;;;;5.18;65.67;98796.81;6284039;20;2855500;-56
2023/03/14 01:15:03;;;;;;;;;28.50;27.00;;;;;5.11;65.21;98791.91;6285734;20;2843034;-58
2023/03/14 01:17:33;;;;;;;;;33.00;31.00;;;;;5.14;64.84;98792.63;6282069;20;2870195;-57
2023/03/14 01:20:04;;;;;;;;;38.00;36.00;;;;;5.12;65.23;98785.66;6283472;20;2749264;-56
2023/03/14 01:22:33;;;;;;;;;37.00;32.50;;;;;5.11;65.45;98776.81;6315382;20;2865911;-58
2023/03/14 01:25:03;;;;;;;;;32.67;31.67;;;;;5.20;65.51;98764.81;6285489;20;3604447;-57
2023/03/14 01:27:32;;;;;;;;;34.50;31.00;;;;;5.21;65.06;98770.06;6315813;20;2854466;-58
2023/03/14 01:30:04;;;;;;;;;43.00;34.67;;;;;5.20;64.15;98770.97;6282395;20;2874423;-58
2023/03/14 01:32:33;;;;;;;;;42.67;30.33;;;;;5.26;66.46;98769.78;6314125;20;3633686;-57
2023/03/14 01:35:04;;;;;;;;;41.00;33.50;;;;;5.11;66.55;98762.63;6317749;20;2850281;-58
2023/03/14 01:37:32;;;;;;;;;31.00;26.00;;;;;5.09;66.02;98741.44;6281272;20;2842006;-57
2023/03/14 01:40:03;;;;;;;;;31.50;28.00;;;;;5.05;66.11;98745.19;6284489;20;2856798;-57
2023/03/14 01:42:32;;;;;;;;;36.00;34.50;;;;;5.09;65.22;98741.44;6284373;20;2858628;-57
2023/03/14 01:45:02;;;;;;;;;37.67;30.33;;;;;4.99;67.24;98741.09;6280450;20;3609646;-58
2023/03/14 01:47:32;;;;;;;;;37.33;30.00;;;;;4.64;68.55;98739.47;6317358;20;3617979;-57
2023/03/14 01:50:12;;;;;;;;;38.00;34.33;;;;;4.80;67.85;98730.56;6314429;20;2865954;-59
2023/03/14 01:52:49;;;;;;;;;32.50;29.50;;;;;4.79;66.83;98718.25;6314807;20;2846201;-58
2023/03/14 01:55:25;;;;;;;;;31.33;28.67;;;;;4.77;67.18;98719.25;6284459;20;3590899;-58
2023/03/14 01:58:05;;;;;;;;;33.00;28.00;;;;;4.67;67.89;98708.25;6276427;20;2858817;-57
2023/03/14 02:00:34;;;;;;;;;34.00;32.00;;;;;4.60;68.19;98709.50;6284634;20;2860696;-58
2023/03/14 02:03:14;;;;;;;;;36.50;32.00;;;;;4.61;66.71;98712.09;6283907;20;2861769;-57
2023/03/14 02:05:46;;;;;;;;;33.00;30.50;;;;;4.75;65.83;98694.53;6281952;20;2848221;-58
2023/03/14 02:08:20;;;;;;;;;30.00;24.50;;;;;4.58;66.66;98701.63;6283689;20;2851262;-58
2023/03/14 02:10:50;;;;;;;;;31.50;26.00;;;;;4.59;66.18;98700.69;6277313;20;2500319;-56
2023/03/14 02:13:22;;;;;;;;;34.50;29.00;;;;;4.47;66.95;98695.13;6285002;20;2864886;-57
2023/03/14 02:15:51;;;;;;;;;31.50;26.00;;;;;4.43;66.90;98683.81;6281384;20;2849301;-55
2023/03/14 02:18:19;;;;;;;;;25.50;24.00;;;;;4.35;67.03;98678.91;6279486;20;2500285;-57
2023/03/14 02:21:16;;;;;;;;;27.00;24.50;;;;;4.34;67.32;98687.81;6279442;20;2500782;-58
2023/03/14 02:23:56;;;;;;;;;36.00;27.00;;;;;4.37;66.75;98679.69;6284026;20;2860674;-58
2023/03/14 02:27:11;;;;;;;;;33.50;24.50;;;;;4.31;66.42;98679.16;6279965;20;2856497;-58
2023/03/14 02:30:17;;;;;;;;;26.50;26.00;;;;;4.45;65.76;98676.63;6280497;20;2844101;-56
2023/03/14 02:33:03;;;;;;;;;29.00;26.00;;;;;4.37;66.17;98678.81;6281939;20;3589834;-56
2023/03/14 02:35:42;;;;;;;;;40.67;27.67;;;;;4.23;66.39;98662.75;6281018;20;2880609;-58
2023/03/14 02:39:11;;;;;;;;;59.67;47.00;;;;;4.21;67.44;98665.47;6317137;20;2862787;-57
2023/03/14 02:41:42;;;;;;;;;48.67;36.33;;;;;3.97;69.06;98646.34;6319221;20;3636742;-57
2023/03/14 02:44:11;;;;;;;;;41.67;35.67;;;;;4.10;68.79;98650.09;6320510;20;2877069;-51
2023/03/14 02:46:42;;;;;;;;;46.00;36.33;;;;;4.00;68.10;98648.84;6318856;20;3629544;-58
2023/03/14 02:49:14;;;;;;;;;30.00;28.00;;;;;3.89;70.44;98643.25;6316943;20;2849255;-55
2023/03/14 02:51:45;;;;;;;;;56.50;42.50;;;;;3.73;69.45;98645.81;6286563;20;2871135;-58
2023/03/14 02:54:16;;;;;;;;;28.00;25.50;;;;;3.82;69.33;98632.09;6286710;20;2856534;-58
2023/03/14 02:56:43;;;;;;;;;27.50;23.00;;;;;3.73;69.30;98630.75;6283468;20;2500432;-57
2023/03/14 02:59:12;;;;;;;;;28.00;24.00;;;;;3.89;68.68;98635.28;6287697;20;2848293;-58
2023/03/14 03:01:41;;;;;;;;;27.00;24.00;;;;;3.77;69.51;98625.31;6287037;20;2848217;-58
2023/03/14 03:04:09;;;;;;;;;27.67;22.00;;;;;3.73;68.90;98636.06;6290226;20;3586785;-57
2023/03/14 03:06:37;;;;;;;;;28.50;23.50;;;;;3.77;69.76;98634.13;6285850;20;2500322;-56
2023/03/14 03:09:06;;;;;;;;;34.50;23.00;;;;;3.71;70.25;98627.31;6290311;20;2861752;-58
2023/03/14 03:11:35;;;;;;;;;27.00;25.50;;;;;3.83;68.97;98619.66;6285991;20;2851274;-56
2023/03/14 03:14:02;;;;;;;;;29.00;25.50;;;;;3.86;68.45;98614.19;6287061;20;2500342;-56
2023/03/14 03:16:31;;;;;;;;;29.00;23.00;;;;;3.86;68.88;98609.72;6287978;20;2833703;-58
2023/03/14 03:18:59;;;;;;;;;27.00;23.00;;;;;3.98;68.24;98602.94;6284886;20;2500327;-56
2023/03/14 03:21:27;;;;;;;;;27.00;22.50;;;;;3.93;68.29;98595.22;6285092;20;2500296;-58
2023/03/14 03:23:55;;;;;;;;;24.00;23.00;;;;;3.87;68.40;98597.31;6287334;20;3577343;-58
2023/03/14 03:26:23;;;;;;;;;31.50;23.00;;;;;3.97;68.74;98596.75;6285093;20;2500275;-57
2023/03/14 03:28:52;;;;;;;;;31.50;24.00;;;;;3.96;68.25;98591.53;6286382;20;2858641;-56
2023/03/14 03:31:20;;;;;;;;;23.00;21.50;;;;;4.01;69.37;98592.16;6282533;20;2498307;-57
2023/03/14 03:33:48;;;;;;;;;31.00;26.00;;;;;3.97;68.53;98590.59;6285658;20;2500301;-58
2023/03/14 03:36:23;;;;;;;;;32.33;21.67;;;;;4.05;68.72;98599.00;6287545;20;3598161;-58
2023/03/14 03:38:52;;;;;;;;;24.67;22.00;;;;;4.11;68.87;98577.47;6285049;20;3573239;-58
2023/03/14 03:41:20;;;;;;;;;22.67;22.00;;;;;4.13;68.14;98580.91;6287725;20;3569078;-58
2023/03/14 03:43:48;;;;;;;;;23.00;23.00;;;;;4.26;68.22;98574.91;6282144;20;2500269;-58
2023/03/14 03:46:17;;;;;;;;;32.00;24.50;;;;;4.33;68.02;98571.00;6285427;20;2856623;-58
2023/03/14 03:48:46;;;;;;;;;38.50;31.00;;;;;4.34;67.24;98575.34;6284068;20;2875263;-58
2023/03/14 03:51:16;;;;;;;;;36.50;33.50;;;;;4.34;67.33;98575.34;6286928;20;2859587;-58
2023/03/14 03:53:44;;;;;;;;;33.50;30.50;;;;;4.48;67.57;98585.25;6282650;20;2500227;-58
2023/03/14 03:56:12;;;;;;;;;30.00;30.00;;;;;4.39;68.29;98570.66;6287530;20;3590922;-58
2023/03/14 03:58:41;;;;;;;;;30.50;25.00;;;;;4.49;68.81;98565.69;6283586;20;2498680;-57
2023/03/14 04:01:10;;;;;;;;;25.00;23.00;;;;;4.58;68.03;98566.06;6285622;20;2500359;-58
2023/03/14 04:03:40;;;;;;;;;26.50;26.00;;;;;4.62;67.22;98556.09;6287386;20;2849331;-58
2023/03/14 04:06:13;;;;;;;;;28.50;22.00;;;;;4.40;68.74;98554.63;6286055;20;2850445;-58
2023/03/14 04:08:43;;;;;;;;;30.50;28.00;;;;;4.38;69.31;98558.31;6287788;20;2852372;-58
2023/03/14 04:11:12;;;;;;;;;22.00;22.00;;;;;4.54;67.88;98568.97;6284564;20;3573215;-57
2023/03/14 04:13:41;;;;;;;;;37.33;31.00;;;;;4.75;66.64;98582.88;6288950;20;2864892;-58
2023/03/14 04:16:34;;;;;;;;;33.00;26.00;;;;;4.75;66.57;98585.53;6313360;20;2862780;-58
2023/03/14 04:19:03;;;;;;;;;29.00;24.00;;;;;4.34;68.61;98589.47;6279370;20;2500326;-57
2023/03/14 04:21:31;;;;;;;;;25.00;25.00;;;;;4.11;69.60;98577.47;6285263;20;2841043;-58
2023/03/14 04:23:59;;;;;;;;;22.50;19.00;;;;;4.06;69.82;98573.34;6282615;20;2491975;-55
2023/03/14 04:26:27;;;;;;;;;28.50;25.00;;;;;4.11;71.12;98569.50;6285259;20;2500325;-55
2023/03/14 04:28:55;;;;;;;;;25.50;24.00;;;;;4.30;70.64;98571.16;6286103;20;2850244;-58
2023/03/14 04:31:24;;;;;;;;;34.00;28.00;;;;;4.60;69.13;98560.63;6285446;20;2863875;-56
2023/03/14 04:33:52;;;;;;;;;36.00;31.00;;;;;4.53;69.78;98565.44;6281708;20;2500295;-58
2023/03/14 04:36:21;;;;;;;;;32.50;30.00;;;;;4.75;70.03;98562.44;6285535;20;2856646;-57
2023/03/14 04:38:49;;;;;;;;;28.00;25.00;;;;;4.82;69.85;98561.16;6283543;20;2848282;-58
2023/03/14 04:41:18;;;;;;;;;29.00;26.00;;;;;4.88;70.00;98561.78;6285110;20;2847250;-58
2023/03/14 04:43:46;;;;;;;;;33.00;27.50;;;;;4.74;69.34;98543.91;6283739;20;2500298;-58
2023/03/14 04:46:14;;;;;;;;;35.00;25.00;;;;;4.99;69.46;98544.25;6287182;20;2872133;-58
2023/03/14 04:48:43;;;;;;;;;36.50;27.00;;;;;5.03;68.50;98545.78;6284806;20;2863813;-58
2023/03/14 04:51:11;;;;;;;;;30.00;25.00;;;;;5.00;68.75;98540.66;6278537;20;2491974;-57
2023/03/14 04:53:41;;;;;;;;;29.00;23.00;;;;;4.93;69.10;98541.94;6286105;20;2853447;-58
2023/03/14 04:56:12;;;;;;;;;28.00;26.00;;;;;4.91;68.88;98541.16;6286124;20;2858646;-56
2023/03/14 04:58:41;;;;;;;;;30.00;28.50;;;;;4.89;69.26;98556.34;6283436;20;2851477;-58
2023/03/14 05:01:10;;;;;;;;;32.00;26.00;;;;;4.79;69.10;98542.72;6285821;20;2857568;-57
2023/03/14 05:03:38;;;;;;;;;31.00;27.50;;;;;4.92;68.74;98547.34;6283501;20;2500281;-57
2023/03/14 05:06:07;;;;;;;;;35.00;25.50;;;;;5.06;69.79;98550.94;6284831;20;2860720;-57
2023/03/14 05:08:36;;;;;;;;;32.50;26.50;;;;;4.92;70.20;98536.69;6282771;20;2859816;-57
2023/03/14 05:11:05;;;;;;;;;34.50;30.50;;;;;4.84;71.01;98534.47;6280482;20;2842972;-57
2023/03/14 05:13:34;;;;;;;;;36.00;29.50;;;;;4.95;70.69;98531.19;6284345;20;2865389;-57
2023/03/14 05:16:10;;;;;;;;;36.33;28.00;;;;;4.88;70.40;98537.84;6280673;20;3621108;-57
2023/03/14 05:18:39;;;;;;;;;32.50;26.00;;;;;4.89;70.57;98540.38;6315275;20;2855457;-58
2023/03/14 05:21:06;;;;;;;;;21.00;21.00;;;;;4.92;69.96;98534.88;6282583;20;2827403;-58
2023/03/14 05:23:34;;;;;;;;;31.50;27.00;;;;;4.81;70.25;98518.69;6285446;20;2500229;-59
2023/03/14 05:26:03;;;;;;;;;24.67;21.00;;;;;4.98;70.20;98521.25;6284987;20;3567059;-57
2023/03/14 05:28:32;;;;;;;;;31.00;27.50;;;;;5.06;69.48;98519.00;6286245;20;2849283;-58
2023/03/14 05:31:00;;;;;;;;;32.00;29.00;;;;;5.19;69.04;98513.84;6283672;20;2856598;-58
2023/03/14 05:33:30;;;;;;;;;42.00;30.00;;;;;5.19;69.03;98507.66;6286388;20;3630555;-58
2023/03/14 05:35:59;;;;;;;;;29.00;25.00;;;;;5.28;68.09;98512.44;6315453;20;2854828;-58
2023/03/14 05:38:27;;;;;;;;;29.50;26.00;;;;;5.53;67.41;98506.53;6285919;20;2835694;-57
2023/03/14 05:40:55;;;;;;;;;26.50;26.50;;;;;5.59;66.93;98513.28;6279745;20;2500711;-57
2023/03/14 05:43:24;;;;;;;;;29.00;23.00;;;;;5.55;66.56;98509.06;6283629;20;2836827;-58
2023/03/14 05:45:52;;;;;;;;;31.50;23.50;;;;;5.57;67.05;98512.50;6285681;20;2850432;-57
2023/03/14 05:48:21;;;;;;;;;33.50;29.50;;;;;5.65;67.13;98507.56;6283813;20;2858653;-56
2023/03/14 05:50:56;;;;;;;;;32.50;27.00;;;;;5.63;67.40;98502.31;6280810;20;2856779;-55
2023/03/14 05:53:25;;;;;;;;;27.50;25.50;;;;;5.69;67.21;98503.78;6278833;20;2500227;-57
2023/03/14 05:55:55;;;;;;;;;31.00;29.00;;;;;5.88;66.64;98512.34;6285246;20;2844015;-58
2023/03/14 05:58:25;;;;;;;;;28.00;23.50;;;;;6.14;65.45;98512.59;6281519;20;2500211;-57
2023/03/14 06:00:53;;;;;;;;;23.33;19.67;;;;;6.31;64.17;98515.03;6282211;20;3581626;-57
2023/03/14 06:03:22;;;;;;;;;29.00;22.00;;;;;6.70;63.16;98526.78;6281015;20;2852465;-57
2023/03/14 06:05:53;;;;;;;;;12.71;8.00;;;;;6.72;62.91;98519.56;6329785;20;1809697;-58
2023/03/14 06:08:22;;;;;;;;;31.00;30.00;;;;;6.69;62.70;98517.09;6317659;20;3595249;-57
2023/03/14 06:10:52;;;;;;;;;24.50;23.50;;;;;7.25;61.46;98523.16;6311932;20;2852629;-57
2023/03/14 06:13:21;;;;;;;;;25.00;24.00;;;;;8.29;57.70;98533.00;6278124;20;2500450;-59
2023/03/14 06:15:49;;;;;;;;;21.50;20.00;;;;;8.10;58.30;98534.28;6280775;20;2500220;-59
2023/03/14 06:18:18;;;;;;;;;31.00;23.50;;;;;8.50;57.61;98530.63;6283826;20;2857601;-59
2023/03/14 06:20:46;;;;;;;;;28.00;20.00;;;;;10.43;50.89;98534.00;6282898;20;2846121;-56
2023/03/14 06:23:15;;;;;;;;;20.50;19.00;;;;;8.50;55.09;98534.16;6284323;20;2842014;-58
2023/03/14 06:25:43;;;;;;;;;23.50;22.00;;;;;8.18;58.12;98522.19;6282132;20;2500313;-57
2023/03/14 06:28:11;;;;;;;;;23.00;21.50;;;;;11.52;48.06;98525.91;6282153;20;2848232;-56
2023/03/14 06:30:41;;;;;;;;;23.00;19.50;;;;;12.00;45.14;98522.75;6282743;20;2837824;-60
2023/03/14 06:33:09;;;;;;;;;22.33;19.33;;;;;12.08;47.61;98531.03;6285132;20;3572256;-60
2023/03/14 06:35:37;;;;;;;;;26.00;23.00;;;;;12.98;45.21;98523.16;6281208;20;2498232;-56
2023/03/14 06:38:06;;;;;;;;;20.50;18.50;;;;;11.43;47.61;98519.50;6284542;20;2822300;-61
2023/03/14 06:40:34;;;;;;;;;23.00;20.00;;;;;9.51;51.91;98508.94;6273631;20;2841917;-60
2023/03/14 06:43:02;;;;;;;;;19.00;18.00;;;;;9.42;54.12;98505.97;6281005;20;2832606;-57
2023/03/14 06:45:31;;;;;;;;;22.00;20.50;;;;;13.77;43.70;98517.72;6281379;20;2833663;-54
2023/03/14 06:47:59;;;;;;;;;18.50;17.50;;;;;16.96;37.06;98531.88;6281080;20;2500383;-60
2023/03/14 06:50:26;;;;;;;;;21.00;21.00;;;;;17.43;36.44;98530.47;6277076;20;2500293;-59
2023/03/14 06:52:55;;;;;;;;;22.00;20.00;;;;;16.68;37.63;98534.75;6278841;20;2844118;-60
2023/03/14 06:55:23;;;;;;;;;18.50;15.00;;;;;17.88;34.95;98534.66;6279395;20;2500650;-58
2023/03/14 06:57:52;;;;;;;;;19.50;18.00;;;;;17.52;35.45;98526.78;6278694;20;2837857;-56
2023/03/14 07:00:21;;;;;;;;;23.00;20.00;;;;;17.40;36.31;98533.53;6279555;20;2841979;-58
2023/03/14 07:02:49;;;;;;;;;21.00;18.50;;;;;16.78;37.40;98534.69;6271900;20;2833601;-59
2023/03/14 07:05:18;;;;;;;;;19.50;17.00;;;;;18.07;35.50;98528.03;6281054;20;2832653;-58
2023/03/14 07:07:47;;;;;;;;;15.00;15.00;;;;;16.03;38.76;98523.50;6278744;20;3538825;-56
2023/03/14 07:10:16;;;;;;;;;13.67;12.67;;;;;18.37;32.99;98521.84;6280216;20;3522119;-58
2023/03/14 07:12:44;;;;;;;;;17.00;15.00;;;;;16.19;36.95;98523.66;6311235;20;2810695;-57
2023/03/14 07:15:13;;;;;;;;;17.33;15.67;;;;;14.98;38.66;98519.63;6279246;20;3550393;-59
2023/03/14 07:17:47;;;;;;;;;18.50;15.00;;;;;16.00;37.37;98526.53;6280493;20;2806537;-59
2023/03/14 07:20:16;;;;;;;;;15.00;15.00;;;;;14.41;39.47;98525.13;6276750;20;2500310;-59
2023/03/14 07:22:49;;;;;;;;;13.33;13.33;;;;;15.27;38.49;98529.38;6283211;20;3516930;-60
2023/03/14 07:25:18;;;;;;;;;16.00;14.67;;;;;14.39;40.47;98524.41;6285557;20;3531625;-58
2023/03/14 07:27:50;;;;;;;;;13.00;11.00;;;;;14.16;40.89;98515.78;6289420;20;2782716;-58
2023/03/14 07:30:18;;;;;;;;;15.00;12.00;;;;;14.40;41.18;98517.16;6291868;20;2803417;-61
2023/03/14 07:32:47;;;;;;;;;14.00;14.00;;;;;14.22;41.12;98523.31;6286154;20;3534099;-58
2023/03/14 07:35:16;;;;;;;;;13.00;12.00;;;;;14.23;41.53;98514.22;6313804;20;2794074;-59
2023/03/14 07:37:44;;;;;;;;;15.67;14.00;;;;;14.53;41.25;98512.28;6318518;20;3534640;-59
2023/03/14 07:40:14;;;;;;;;;14.67;14.00;;;;;14.94;40.14;98510.13;6283815;20;3536861;-59
2023/03/14 07:42:44;;;;;;;;;13.40;12.00;;;;;14.89;40.66;98502.44;6310968;20;2788124;-60
2023/03/14 07:45:13;;;;;;;;;11.00;11.00;;;;;15.47;39.90;98500.34;6288858;20;3518003;-59
2023/03/14 07:47:41;;;;;;;;;14.00;12.67;;;;;15.49;39.70;98509.19;6318835;20;3519051;-58
2023/03/14 07:50:10;;;;;;;;;12.33;11.67;;;;;15.85;39.20;98504.63;6315141;20;3506487;-58
2023/03/14 07:52:40;;;;;;;;;8.20;7.00;;;;;14.93;39.45;98503.88;6345352;20;2741006;-60
2023/03/14 07:55:09;;;;;;;;;20.33;12.33;;;;;15.48;39.37;98499.34;6318565;20;3551309;-59
2023/03/14 07:57:37;;;;;;;;;10.00;10.00;;;;;15.79;38.55;98502.53;6286877;20;2778391;-60
2023/03/14 08:00:07;;;;;;;;;11.00;9.00;;;;;15.26;39.10;98489.84;6323332;20;2769030;-60
2023/03/14 08:02:36;;;;;;;;;12.00;11.00;;;;;15.36;39.08;98485.22;6283970;20;2789920;-60
2023/03/14 08:05:04;;;;;;;;;11.50;10.00;;;;;15.75;38.12;98479.50;6315239;20;2785784;-61
2023/03/14 08:07:33;;;;;;;;;14.33;12.67;;;;;15.85;38.29;98487.50;6274065;20;2771382;-60
2023/03/14 08:10:04;;;;;;;;;11.20;8.60;;;;;15.57;39.16;98485.75;6330571;20;2768239;-61
2023/03/14 08:12:31;;;;;;;;;12.00;11.00;;;;;15.81;38.66;98486.97;6279506;20;2793190;-60
2023/03/14 08:14:59;;;;;;;;;12.00;11.00;;;;;16.19;38.24;98482.16;6271896;20;2789960;-60
2023/03/14 08:17:27;;;;;;;;;10.00;8.50;;;;;15.54;38.38;98477.94;6277562;20;2763828;-61
2023/03/14 08:19:55;;;;;;;;;13.00;10.00;;;;;16.30;38.76;98476.50;6280200;20;2792051;-59
2023/03/14 08:22:23;;;;;;;;;15.67;11.33;;;;;16.10;38.39;98470.44;6271827;20;3523227;-61
2023/03/14 08:24:52;;;;;;;;;12.33;9.00;;;;;16.45;37.67;98466.72;6309207;20;3510973;-60
2023/03/14 08:27:21;;;;;;;;;12.00;10.00;;;;;16.21;37.92;98461.19;6312208;20;3511734;-59
2023/03/14 08:29:48;;;;;;;;;12.00;12.00;;;;;16.30;38.17;98459.38;6315845;20;2785032;-60
2023/03/14 08:32:16;;;;;;;;;9.00;8.50;;;;;16.65;37.53;98455.66;6279346;20;2752452;-57
2023/03/14 08:34:45;;;;;;;;;10.00;9.33;;;;;16.64;37.51;98453.94;6278631;20;2775339;-58
2023/03/14 08:37:12;;;;;;;;;11.00;11.00;;;;;16.55;37.78;98449.50;6315077;20;2788894;-59
2023/03/14 08:39:54;;;;;;;;;10.33;10.00;;;;;17.19;37.30;98442.59;6281326;20;2780521;-60
2023/03/14 08:42:21;;;;;;;;;8.00;8.00;;;;;16.66;36.66;98443.78;6311787;20;2746120;-61
2023/03/14 08:44:52;;;;;;;;;8.00;6.40;;;;;16.95;36.02;98454.25;6307453;20;2738858;-60
2023/03/14 08:47:20;;;;;;;;;6.50;5.00;;;;;16.62;36.80;98437.00;6314092;20;2745044;-59
2023/03/14 08:49:48;;;;;;;;;10.00;7.00;;;;;17.07;36.26;98446.66;6279275;20;2754493;-58
2023/03/14 08:52:16;;;;;;;;;8.00;8.00;;;;;16.72;36.31;98436.84;6281722;20;2752483;-61
2023/03/14 08:54:45;;;;;;;;;9.60;9.60;;;;;17.41;35.69;98448.41;6308561;20;2760732;-60
2023/03/14 08:57:15;;;;;;;;;9.00;9.00;;;;;17.85;35.67;98462.53;6303309;20;2754457;-60
2023/03/14 08:59:45;;;;;;;;;9.80;9.80;;;;;17.46;35.71;98452.31;6306918;20;2777424;-61
2023/03/14 09:02:14;;;;;;;;;8.40;8.00;;;;;17.31;36.18;98454.00;6306922;20;2745174;-61
2023/03/14 09:04:42;;;;;;;;;10.00;7.00;;;;;17.57;35.89;98453.84;6312408;20;2757616;-60
2023/03/14 09:07:10;;;;;;;;;9.00;9.00;;;;;17.37;36.20;98456.03;6280188;20;2761889;-60
2023/03/14 09:09:40;;;;;;;;;8.40;8.40;;;;;17.89;36.24;98434.00;6337612;20;2748182;-59
2023/03/14 09:12:08;;;;;;;;;9.00;8.50;;;;;18.31;35.17;98440.19;6319960;20;2752365;-59
2023/03/14 09:14:36;;;;;;;;;8.00;6.00;;;;;18.39;35.29;98432.00;6284754;20;2738817;-59
2023/03/14 09:17:06;;;;;;;;;7.20;6.20;;;;;18.64;35.24;98428.19;6308560;20;2740942;-57
2023/03/14 09:19:36;;;;;;;;;4.75;4.75;;;;;18.33;34.46;98416.41;6341826;20;2743008;-59
2023/03/14 09:22:05;;;;;;;;;5.60;5.00;;;;;18.74;34.77;98416.22;6334544;20;2745164;-59
2023/03/14 09:24:34;;;;;;;;;6.20;6.20;;;;;18.51;34.55;98419.75;6303104;20;2737802;-60
2023/03/14 09:27:04;;;;;;;;;7.60;6.20;;;;;18.53;35.38;98408.66;6338156;20;2745120;-60
2023/03/14 09:29:34;;;;;;;;;8.60;6.00;;;;;19.17;34.90;98413.94;6338001;20;2745049;-60
2023/03/14 09:32:02;;;;;;;;;5.50;5.50;;;;;18.52;34.26;98399.69;6312985;20;2736766;-59
2023/03/14 09:34:30;;;;;;;;;5.00;5.00;;;;;18.90;34.21;98399.84;6285863;20;2748201;-59
2023/03/14 09:36:58;;;;;;;;;7.00;5.33;;;;;19.14;34.11;98397.97;6285742;20;2746108;-55
2023/03/14 09:39:26;;;;;;;;;6.00;6.00;;;;;19.23;34.15;98407.81;6321713;20;2741984;-58
2023/03/14 09:42:01;;;;;;;;;7.25;7.25;;;;;19.22;34.30;98395.19;6332436;20;2049529;-58
2023/03/14 09:44:47;;;;;;;;;6.00;6.00;;;;;18.81;34.23;98384.59;6312941;20;2740962;-58
2023/03/14 09:47:19;;;;;;;;;6.40;6.40;;;;;19.22;34.35;98381.59;6331681;20;2742223;-57
2023/03/14 09:49:49;;;;;;;;;7.60;6.80;;;;;19.21;34.24;98369.88;6332356;20;2740926;-57
2023/03/14 09:52:41;;;;;;;;;4.00;4.00;;;;;19.07;34.08;98376.94;6312104;20;2754476;-56
2023/03/14 09:55:18;;;;;;;;;5.00;5.00;;;;;19.38;33.92;98362.44;6335714;20;2748201;-58
2023/03/14 09:57:51;;;;;;;;;6.00;5.80;;;;;19.58;33.59;98368.19;6332165;20;2742388;-57
2023/03/14 10:00:27;;;;;;;;;4.00;4.00;;;;;19.37;33.53;98363.44;6332159;20;2741943;-60
2023/03/14 10:03:36;;;;;;;;;7.00;7.00;;;;;18.98;34.24;98339.94;6311983;20;2739903;-60
2023/03/14 10:06:13;;;;;;;;;7.00;7.00;;;;;19.76;33.79;98348.81;6287836;20;2733731;-57
2023/03/14 10:08:44;;;;;;;;;6.33;5.67;;;;;19.98;33.62;98344.31;6283476;20;2737834;-58
2023/03/14 10:11:17;;;;;;;;;7.67;5.00;;;;;19.86;33.09;98343.97;6314152;20;2747162;-57
2023/03/14 10:14:09;;;;;;;;;5.40;3.80;;;;;19.95;33.03;98348.25;6335074;20;2747165;-58
2023/03/14 10:16:45;;;;;;;;;7.67;6.67;;;;;19.89;33.62;98318.22;6279964;20;2744064;-57
2023/03/14 10:19:17;;;;;;;;;8.60;6.60;;;;;20.18;32.98;98325.53;6334947;20;2739893;-58
2023/03/14 10:21:53;;;;;;;;;5.67;4.67;;;;;19.58;33.60;98296.56;6279038;20;2751347;-60
2023/03/14 10:24:26;;;;;;;;;4.67;3.33;;;;;20.31;32.93;98317.53;6311333;20;2746229;-58
2023/03/14 10:27:04;;;;;;;;;4.40;3.40;;;;;20.39;32.97;98322.88;6335741;20;2744471;-58
2023/03/14 10:29:34;;;;;;;;;4.33;1.33;;;;;20.58;32.63;98315.16;6282702;20;2741956;-58
2023/03/14 10:32:09;;;;;;;;;2.00;2.00;;;;;20.61;32.63;98320.22;6314993;20;2744154;-59
2023/03/14 10:34:39;;;;;;;;;1.33;0.00;;;;;20.18;32.67;98303.72;6311834;20;2731545;-60
2023/03/14 10:37:27;;;;;;;;;7.40;4.60;;;;;19.86;32.96;98297.66;6335246;20;2747159;-59
2023/03/14 10:40:05;;;;;;;;;2.00;1.00;;;;;20.25;32.70;98301.06;6277774;20;2742057;-60
2023/03/14 10:42:44;;;;;;;;;3.00;3.00;;;;;20.01;33.27;98286.75;6330718;20;2747568;-58
2023/03/14 10:45:42;;;;;;;;;5.67;3.00;;;;;19.86;33.80;98289.47;6280072;20;2754480;-60
2023/03/14 10:48:35;;;;;;;;;3.33;2.00;;;;;20.37;32.97;98284.03;6309103;20;2756549;-59
2023/03/14 10:51:16;;;;;;;;;3.40;3.40;;;;;20.58;32.79;98282.41;6333014;20;2746203;-60
2023/03/14 10:54:01;;;;;;;;;7.67;5.00;;;;;20.13;32.94;98273.47;6275063;20;2746137;-60
2023/03/14 10:56:37;;;;;;;;;2.60;1.60;;;;;20.44;32.78;98264.22;6336843;20;2753415;-60
2023/03/14 10:59:15;;;;;;;;;4.00;4.00;;;;;20.22;33.17;98276.94;6337048;20;2733711;-58
2023/03/14 11:02:00;;;;;;;;;4.00;3.00;;;;;20.29;32.69;98278.69;6337144;20;2738831;-59
2023/03/14 11:05:24;;;;;;;;;5.20;3.80;;;;;20.92;32.78;98259.06;6337903;20;2741923;-58
2023/03/14 11:08:08;;;;;;;;;1.67;1.33;;;;;20.99;32.83;98257.25;6315000;20;2737853;-59
2023/03/14 11:10:48;;;;;;;;;3.40;3.40;;;;;20.88;32.57;98260.47;6337642;20;2756585;-59
2023/03/14 11:13:47;;;;;;;;;3.00;3.00;;;;;21.01;32.22;98246.94;6282419;20;2746146;-58
2023/03/14 11:17:01;;;;;;;;;3.00;3.00;;;;;20.74;32.96;98248.59;6340077;20;2748217;-57
2023/03/14 11:20:39;;;;;;;;;3.00;3.00;;;;;20.87;32.58;98246.00;6311414;20;2752481;-58
2023/03/14 11:23:22;;;;;;;;;0.67;0.67;;;;;20.80;32.27;98221.41;6314505;20;2739983;-57
2023/03/14 11:26:52;;;;;;;;;4.00;2.60;;;;;21.19;32.08;98228.19;6339973;20;2740929;-60
2023/03/14 11:30:05;;;;;;;;;1.00;0.00;;;;;21.57;31.82;98221.59;6319111;20;2725264;-59
2023/03/14 11:33:01;;;;;;;;;3.80;2.80;;;;;21.36;32.02;98203.34;6336879;20;2742073;-58